Time;durP1;ratioP1;P1;durP2;ratioP2;P2;SDS_P1;SDS_P2;PMS_P1;PMS_P2;Temp;Humidity;BMP_temperature;BMP_pressure;BME280_temperature;BME280_humidity;BME280_pressure;Samples;Min_cycle;Max_cycle;Signal;HPM_P1;HPM_P2
2022/08/18 00:02:11;;;;;;;61.30;33.50;;;;;;;;;;6197304;28;20117;-59
2022/08/18 00:05:11;;;;;;;66.82;35.35;;;;;;;;;;6197396;28;20053;-50
2022/08/18 00:08:12;;;;;;;54.03;33.33;;;;;;;;;;6197358;28;20041;-60
2022/08/18 00:11:14;;;;;;;58.67;34.87;;;;;;;;;;6201794;28;20133;-54
2022/08/18 00:14:17;;;;;;;58.22;34.90;;;;;;;;;;6202082;28;20175;-57
2022/08/18 00:17:19;;;;;;;59.10;33.63;;;;;;;;;;6195981;28;20046;-58
2022/08/18 00:20:22;;;;;;;56.08;34.15;;;;;;;;;;6198604;28;20602;-59
2022/08/18 00:23:23;;;;;;;54.47;34.70;;;;;;;;;;6193085;28;20061;-60
2022/08/18 00:26:24;;;;;;;57.80;33.07;;;;;;;;;;6196990;28;20050;-53
2022/08/18 00:29:24;;;;;;;52.73;31.30;;;;;;;;;;6198209;28;20045;-53
2022/08/18 00:32:29;;;;;;;59.20;34.67;;;;;;;;;;6197096;28;20050;-56
2022/08/18 00:35:33;;;;;;;56.40;33.95;;;;;;;;;;6196988;28;21901;-56
2022/08/18 00:38:34;;;;;;;59.63;33.80;;;;;;;;;;6195159;28;20416;-57
2022/08/18 00:41:35;;;;;;;58.90;35.23;;;;;;;;;;6198704;28;20048;-57
2022/08/18 00:44:35;;;;;;;57.10;33.60;;;;;;;;;;6195458;28;20282;-53
2022/08/18 00:47:36;;;;;;;55.67;34.73;;;;;;;;;;6205766;28;20172;-53
2022/08/18 00:50:58;;;;;;;62.17;36.90;;;;;;;;;;6220029;28;20042;-51
2022/08/18 00:54:19;;;;;;;;;;;;;;;;;;6218865;28;20057;-54
2022/08/18 00:57:22;;;;;;;54.67;32.97;;;;;;;;;;6216838;28;19928;-60
2022/08/18 01:00:23;;;;;;;56.88;32.38;;;;;;;;;;6216888;28;20053;-60
2022/08/18 01:03:24;;;;;;;58.70;33.70;;;;;;;;;;6222387;28;20812;-59
2022/08/18 01:06:42;;;;;;;54.55;33.53;;;;;;;;;;6224042;28;20050;-60
2022/08/18 01:09:43;;;;;;;60.03;34.65;;;;;;;;;;6217815;28;20046;-60
2022/08/18 01:12:47;;;;;;;55.33;33.57;;;;;;;;;;6221098;28;20053;-59
2022/08/18 01:15:47;;;;;;;64.13;34.72;;;;;;;;;;6228003;28;20496;-60
2022/08/18 01:22:21;;;;;;;53.53;32.53;;;;;;;;;;6226811;28;20041;-58
2022/08/18 01:28:44;;;;;;;58.55;34.42;;;;;;;;;;6231805;28;20076;-59
2022/08/18 01:31:53;;;;;;;52.42;32.97;;;;;;;;;;6229810;28;20046;-60
2022/08/18 01:34:54;;;;;;;59.13;34.40;;;;;;;;;;6234862;28;20061;-58
2022/08/18 01:37:56;;;;;;;53.88;33.13;;;;;;;;;;6240791;28;20476;-61
2022/08/18 01:40:58;;;;;;;59.22;33.30;;;;;;;;;;6237657;28;20056;-61
2022/08/18 01:44:00;;;;;;;55.30;32.78;;;;;;;;;;6238648;28;20140;-59
2022/08/18 01:47:01;;;;;;;57.38;34.15;;;;;;;;;;6238535;28;20404;-57
2022/08/18 01:50:04;;;;;;;55.55;33.33;;;;;;;;;;6236419;28;20037;-58
2022/08/18 01:53:06;;;;;;;55.42;32.83;;;;;;;;;;6239639;28;20045;-59
2022/08/18 01:56:07;;;;;;;48.58;30.90;;;;;;;;;;6232542;28;20144;-58
2022/08/18 01:59:12;;;;;;;54.55;31.23;;;;;;;;;;6233368;28;20056;-61
2022/08/18 02:02:17;;;;;;;56.15;32.20;;;;;;;;;;6238174;28;20472;-60
2022/08/18 02:05:26;;;;;;;60.55;35.58;;;;;;;;;;6228639;28;20054;-57
2022/08/18 02:08:28;;;;;;;58.45;34.65;;;;;;;;;;6218669;28;20050;-58
2022/08/18 02:11:28;;;;;;;58.03;34.50;;;;;;;;;;6219448;28;20053;-54
2022/08/18 02:14:29;;;;;;;54.53;33.60;;;;;;;;;;6217208;28;20049;-61
2022/08/18 02:17:36;;;;;;;53.00;33.10;;;;;;;;;;6220106;28;20037;-54
2022/08/18 02:20:36;;;;;;;52.08;32.97;;;;;;;;;;6222764;28;20046;-59
2022/08/18 02:23:38;;;;;;;54.60;31.07;;;;;;;;;;6221807;28;20052;-60
2022/08/18 02:26:39;;;;;;;49.50;31.58;;;;;;;;;;6221601;28;20048;-58
2022/08/18 02:29:40;;;;;;;49.80;30.83;;;;;;;;;;6223942;28;20578;-60
2022/08/18 02:32:41;;;;;;;51.15;31.65;;;;;;;;;;6220742;28;20042;-58
2022/08/18 02:35:42;;;;;;;51.20;31.98;;;;;;;;;;6219230;28;20092;-57
2022/08/18 02:38:43;;;;;;;52.90;31.67;;;;;;;;;;6218913;28;20050;-57
2022/08/18 02:41:44;;;;;;;57.47;32.53;;;;;;;;;;6219815;28;20053;-56
2022/08/18 02:44:44;;;;;;;57.50;31.83;;;;;;;;;;6219099;28;20113;-57
2022/08/18 02:47:51;;;;;;;50.83;30.57;;;;;;;;;;6219857;28;20050;-57
2022/08/18 02:51:02;;;;;;;58.17;34.42;;;;;;;;;;6218836;28;20816;-55
2022/08/18 02:54:08;;;;;;;56.63;34.80;;;;;;;;;;6221840;28;20111;-54
2022/08/18 02:57:10;;;;;;;56.42;33.83;;;;;;;;;;6222990;28;20042;-55
2022/08/18 03:00:14;;;;;;;58.83;34.20;;;;;;;;;;6221343;28;20131;-53
2022/08/18 03:03:15;;;;;;;53.38;31.83;;;;;;;;;;6220954;28;20067;-56
2022/08/18 03:06:17;;;;;;;54.80;32.70;;;;;;;;;;6223092;28;20049;-58
2022/08/18 03:09:18;;;;;;;55.33;31.92;;;;;;;;;;6225204;28;20063;-59
2022/08/18 03:12:19;;;;;;;59.13;35.90;;;;;;;;;;6223634;28;20053;-58
2022/08/18 03:15:20;;;;;;;50.57;31.20;;;;;;;;;;6223770;28;20048;-54
2022/08/18 03:18:22;;;;;;;58.27;35.10;;;;;;;;;;6222546;28;20044;-55
2022/08/18 03:21:24;;;;;;;50.80;31.85;;;;;;;;;;6222714;28;20135;-57
2022/08/18 03:24:26;;;;;;;52.45;32.67;;;;;;;;;;6220566;28;20140;-58
2022/08/18 03:27:27;;;;;;;54.03;31.90;;;;;;;;;;6222157;28;20050;-54
2022/08/18 03:30:27;;;;;;;54.53;32.20;;;;;;;;;;6238925;28;20408;-50
2022/08/18 03:33:28;;;;;;;56.17;33.57;;;;;;;;;;6238840;28;20042;-50
2022/08/18 03:36:32;;;;;;;56.37;32.40;;;;;;;;;;6221464;28;20053;-60
2022/08/18 03:39:32;;;;;;;49.35;31.75;;;;;;;;;;6225257;28;20052;-60
2022/08/18 03:42:33;;;;;;;51.70;31.00;;;;;;;;;;6223260;28;20050;-59
2022/08/18 03:45:34;;;;;;;53.40;31.53;;;;;;;;;;6222293;28;20045;-60
2022/08/18 03:48:38;;;;;;;51.00;29.93;;;;;;;;;;6225813;28;20853;-57
2022/08/18 03:51:42;;;;;;;46.83;28.90;;;;;;;;;;6223293;28;20141;-59
2022/08/18 03:54:43;;;;;;;47.20;29.95;;;;;;;;;;6219204;28;20404;-61
2022/08/18 03:57:44;;;;;;;48.00;29.57;;;;;;;;;;6219396;28;20624;-59
2022/08/18 04:00:44;;;;;;;48.97;30.55;;;;;;;;;;6223655;28;20096;-60
2022/08/18 04:03:49;;;;;;;48.27;31.60;;;;;;;;;;6223640;28;20572;-59
2022/08/18 04:06:52;;;;;;;61.30;31.77;;;;;;;;;;6221099;28;20052;-60
2022/08/18 04:09:53;;;;;;;52.63;31.40;;;;;;;;;;6235991;28;20055;-53
2022/08/18 04:12:53;;;;;;;53.10;31.93;;;;;;;;;;6232800;28;20679;-60
2022/08/18 04:15:58;;;;;;;51.43;31.97;;;;;;;;;;6233283;28;20493;-61
2022/08/18 04:19:02;;;;;;;57.70;34.33;;;;;;;;;;6228690;28;20034;-60
2022/08/18 04:22:04;;;;;;;59.08;34.30;;;;;;;;;;6231622;28;20216;-60
2022/08/18 04:25:08;;;;;;;59.85;34.13;;;;;;;;;;6242227;28;20388;-58
2022/08/18 04:28:08;;;;;;;60.28;32.58;;;;;;;;;;6229226;28;20140;-57
2022/08/18 04:31:12;;;;;;;60.47;35.07;;;;;;;;;;6240700;28;20081;-58
2022/08/18 04:34:13;;;;;;;63.25;33.38;;;;;;;;;;6231543;28;20510;-57
2022/08/18 04:37:15;;;;;;;57.63;31.33;;;;;;;;;;6225238;28;20119;-60
2022/08/18 04:40:15;;;;;;;53.78;31.20;;;;;;;;;;6218825;28;20042;-58
2022/08/18 04:43:16;;;;;;;54.07;32.50;;;;;;;;;;6218104;28;20483;-57
2022/08/18 04:46:17;;;;;;;58.13;32.90;;;;;;;;;;6218008;28;20049;-60
2022/08/18 04:49:20;;;;;;;65.47;34.47;;;;;;;;;;6222286;28;20053;-60
2022/08/18 04:55:50;;;;;;;52.67;32.08;;;;;;;;;;6219988;28;20077;-53
2022/08/18 04:58:57;;;;;;;53.75;32.58;;;;;;;;;;6219196;28;20049;-60
2022/08/18 05:02:01;;;;;;;52.28;32.25;;;;;;;;;;6223076;28;20050;-60
2022/08/18 05:05:02;;;;;;;57.92;33.33;;;;;;;;;;6221897;28;20054;-54
2022/08/18 05:08:03;;;;;;;62.28;34.30;;;;;;;;;;6223286;28;20080;-60
2022/08/18 05:11:04;;;;;;;56.63;32.75;;;;;;;;;;6220050;28;20071;-59
2022/08/18 05:14:07;;;;;;;56.20;32.57;;;;;;;;;;6223224;28;21521;-60
2022/08/18 05:17:08;;;;;;;63.47;34.25;;;;;;;;;;6224237;28;20037;-57
2022/08/18 05:20:09;;;;;;;54.13;33.90;;;;;;;;;;6233407;28;20050;-59
2022/08/18 05:23:10;;;;;;;62.72;36.53;;;;;;;;;;6234184;28;20049;-59
2022/08/18 05:26:13;;;;;;;58.00;35.40;;;;;;;;;;6229660;28;20057;-54
2022/08/18 05:29:15;;;;;;;63.85;36.00;;;;;;;;;;6239822;28;20049;-59
2022/08/18 05:32:16;;;;;;;65.63;37.25;;;;;;;;;;6226404;28;20179;-56
2022/08/18 05:35:20;;;;;;;;;;;;;;;;;;6224676;28;20127;-55
2022/08/18 05:38:31;;;;;;;71.43;38.58;;;;;;;;;;6233628;28;19925;-58
2022/08/18 05:41:35;;;;;;;71.40;38.95;;;;;;;;;;6229714;28;20046;-60
2022/08/18 05:44:41;;;;;;;65.15;37.42;;;;;;;;;;6236802;28;20550;-57
2022/08/18 05:47:43;;;;;;;72.40;39.60;;;;;;;;;;6236051;28;20084;-59
2022/08/18 05:50:44;;;;;;;70.03;39.30;;;;;;;;;;6233631;28;20107;-55
2022/08/18 05:57:10;;;;;;;70.00;38.30;;;;;;;;;;6235638;28;20103;-54
2022/08/18 06:00:12;;;;;;;60.08;37.22;;;;;;;;;;6232827;28;20034;-60
2022/08/18 06:03:19;;;;;;;63.95;38.17;;;;;;;;;;6220859;28;20041;-53
2022/08/18 06:06:25;;;;;;;65.28;36.90;;;;;;;;;;6219251;28;20137;-57
2022/08/18 06:09:33;;;;;;;69.65;36.80;;;;;;;;;;6218170;28;20052;-57
2022/08/18 06:12:42;;;;;;;62.83;35.25;;;;;;;;;;6220373;28;20041;-55
2022/08/18 06:15:48;;;;;;;68.65;36.75;;;;;;;;;;6219445;28;20042;-58
2022/08/18 06:19:10;;;;;;;65.00;34.38;;;;;;;;;;6218145;28;20133;-58
2022/08/18 06:22:14;;;;;;;58.10;34.28;;;;;;;;;;6216852;28;20617;-57
2022/08/18 06:25:18;;;;;;;59.13;34.30;;;;;;;;;;6218797;28;20069;-58
2022/08/18 06:28:19;;;;;;;55.58;34.22;;;;;;;;;;6218910;28;20058;-59
2022/08/18 06:31:39;;;;;;;62.20;34.08;;;;;;;;;;6219944;28;20133;-59
2022/08/18 06:35:09;;;;;;;52.10;31.23;;;;;;;;;;6220379;28;20046;-57
2022/08/18 06:41:41;;;;;;;56.72;31.67;;;;;;;;;;6223356;28;20042;-60
2022/08/18 06:44:49;;;;;;;50.53;31.30;;;;;;;;;;6222405;28;20404;-56
2022/08/18 06:48:00;;;;;;;54.17;31.10;;;;;;;;;;6222987;28;20140;-53
2022/08/18 06:51:02;;;;;;;53.42;30.80;;;;;;;;;;6219120;28;20074;-59
2022/08/18 06:54:28;;;;;;;53.22;30.98;;;;;;;;;;6222746;28;20050;-56
2022/08/18 06:57:35;;;;;;;46.17;29.23;;;;;;;;;;6221939;28;20060;-59
2022/08/18 07:00:41;;;;;;;51.13;30.05;;;;;;;;;;6221055;28;20519;-57
2022/08/18 07:03:47;;;;;;;50.17;29.55;;;;;;;;;;6220202;28;20472;-54
2022/08/18 07:06:48;;;;;;;51.03;29.33;;;;;;;;;;6222298;28;20499;-58
2022/08/18 07:09:48;;;;;;;47.73;27.53;;;;;;;;;;6236588;28;20045;-58
2022/08/18 07:12:50;;;;;;;47.30;28.07;;;;;;;;;;6239362;28;20060;-59
2022/08/18 07:15:55;;;;;;;46.72;26.17;;;;;;;;;;6240017;28;20052;-60
2022/08/18 07:19:19;;;;;;;40.53;26.30;;;;;;;;;;6234228;28;20062;-61
2022/08/18 07:22:19;;;;;;;44.55;25.60;;;;;;;;;;6227166;28;20060;-61
2022/08/18 07:25:28;;;;;;;36.77;22.87;;;;;;;;;;6221445;28;20041;-59
2022/08/18 07:28:36;;;;;;;36.22;22.40;;;;;;;;;;6236018;28;20088;-61
2022/08/18 07:31:53;;;;;;;32.08;21.20;;;;;;;;;;6229181;28;20064;-60
2022/08/18 07:34:57;;;;;;;35.20;22.38;;;;;;;;;;6225878;28;20137;-59
2022/08/18 07:38:16;;;;;;;34.28;21.85;;;;;;;;;;6230556;28;20050;-60
2022/08/18 07:41:24;;;;;;;31.38;21.15;;;;;;;;;;6225565;28;20077;-60
2022/08/18 07:44:50;;;;;;;32.65;21.02;;;;;;;;;;6220543;28;20545;-60
2022/08/18 07:47:56;;;;;;;42.25;21.40;;;;;;;;;;6221813;28;20038;-59
2022/08/18 07:51:18;;;;;;;36.10;21.77;;;;;;;;;;6220123;28;20062;-61
2022/08/18 07:54:28;;;;;;;36.50;20.98;;;;;;;;;;6220657;28;20141;-52
2022/08/18 07:57:38;;;;;;;33.60;21.10;;;;;;;;;;6221849;28;20096;-54
2022/08/18 08:01:03;;;;;;;32.88;21.38;;;;;;;;;;6219397;28;20034;-56
2022/08/18 08:04:48;;;;;;;34.03;21.80;;;;;;;;;;6220184;28;20049;-54
2022/08/18 08:08:00;;;;;;;33.15;20.73;;;;;;;;;;6185746;28;20492;-56
2022/08/18 08:11:25;;;;;;;34.40;20.33;;;;;;;;;;6221239;28;20056;-58
2022/08/18 08:14:44;;;;;;;34.50;21.13;;;;;;;;;;6219944;28;20054;-61
2022/08/18 08:17:54;;;;;;;34.17;20.92;;;;;;;;;;6219131;28;20053;-57
2022/08/18 08:20:59;;;;;;;34.08;21.33;;;;;;;;;;6220737;28;20046;-61
2022/08/18 08:24:08;;;;;;;32.75;21.05;;;;;;;;;;6220442;28;20053;-60
2022/08/18 08:27:39;;;;;;;31.25;21.55;;;;;;;;;;6219965;28;20054;-61
2022/08/18 08:30:53;;;;;;;33.25;20.15;;;;;;;;;;6216925;28;20716;-61
2022/08/18 08:34:06;;;;;;;34.47;20.95;;;;;;;;;;6219674;28;20918;-58
2022/08/18 08:37:16;;;;;;;33.13;20.77;;;;;;;;;;6216518;28;20080;-61
2022/08/18 08:40:23;;;;;;;33.88;21.08;;;;;;;;;;6228360;28;20132;-61
2022/08/18 08:43:53;;;;;;;34.90;22.27;;;;;;;;;;6232075;28;20419;-56
2022/08/18 08:47:13;;;;;;;29.52;19.88;;;;;;;;;;6233417;28;20057;-60
2022/08/18 08:50:20;;;;;;;38.75;22.50;;;;;;;;;;6237436;28;20061;-61
2022/08/18 08:53:47;;;;;;;34.80;23.27;;;;;;;;;;6234504;28;20522;-61
2022/08/18 08:56:51;;;;;;;37.08;22.17;;;;;;;;;;6212204;28;20049;-58
2022/08/18 08:59:56;;;;;;;40.38;22.70;;;;;;;;;;6219311;28;20045;-57
2022/08/18 09:03:15;;;;;;;34.63;22.52;;;;;;;;;;6218292;28;20052;-56
2022/08/18 09:06:39;;;;;;;35.38;22.17;;;;;;;;;;6221921;28;20496;-57
2022/08/18 09:10:06;;;;;;;36.22;22.42;;;;;;;;;;6220000;28;20038;-57
2022/08/18 09:13:07;;;;;;;34.58;22.92;;;;;;;;;;6215961;28;20579;-56
2022/08/18 09:16:22;;;;;;;34.83;22.27;;;;;;;;;;6221325;28;20041;-53
2022/08/18 09:20:00;;;;;;;36.53;22.52;;;;;;;;;;6220354;28;20500;-60
2022/08/18 09:23:12;;;;;;;36.20;23.10;;;;;;;;;;6217390;28;20065;-59
2022/08/18 09:26:34;;;;;;;40.10;22.65;;;;;;;;;;6228239;28;20216;-56
2022/08/18 09:29:37;;;;;;;39.67;23.80;;;;;;;;;;6220286;28;20062;-56
2022/08/18 09:32:54;;;;;;;35.10;23.00;;;;;;;;;;6219451;28;20042;-55
2022/08/18 09:36:07;;;;;;;38.40;23.25;;;;;;;;;;6221220;28;20140;-55
2022/08/18 09:42:56;;;;;;;35.88;22.55;;;;;;;;;;6218084;28;20050;-58
2022/08/18 09:45:59;;;;;;;40.05;23.67;;;;;;;;;;6229818;28;20144;-60
2022/08/18 09:49:21;;;;;;;41.38;24.42;;;;;;;;;;6233229;28;20057;-58
2022/08/18 09:52:21;;;;;;;34.55;22.95;;;;;;;;;;6233424;28;20049;-58
2022/08/18 09:55:22;;;;;;;37.80;24.07;;;;;;;;;;6229238;28;20066;-52
2022/08/18 09:58:22;;;;;;;37.67;24.13;;;;;;;;;;6231497;28;20064;-60
2022/08/18 10:01:33;;;;;;;38.75;24.30;;;;;;;;;;6218114;28;20049;-57
2022/08/18 10:04:49;;;;;;;41.10;24.83;;;;;;;;;;6218174;28;21243;-60
2022/08/18 10:08:15;;;;;;;38.00;24.35;;;;;;;;;;6221062;28;20058;-59
2022/08/18 10:11:37;;;;;;;36.50;25.00;;;;;;;;;;6219069;28;20184;-60
2022/08/18 10:15:15;;;;;;;39.58;24.98;;;;;;;;;;6220355;28;20042;-54
2022/08/18 10:18:22;;;;;;;38.13;24.45;;;;;;;;;;6221195;28;20053;-54
2022/08/18 10:21:28;;;;;;;48.88;25.60;;;;;;;;;;6223562;28;20228;-53
2022/08/18 10:24:34;;;;;;;37.22;24.55;;;;;;;;;;6225731;28;20059;-57
2022/08/18 10:27:49;;;;;;;41.72;25.17;;;;;;;;;;6226081;28;20562;-58
2022/08/18 10:31:01;;;;;;;37.33;24.25;;;;;;;;;;6221269;28;20057;-61
2022/08/18 10:34:09;;;;;;;41.75;24.88;;;;;;;;;;6227707;28;20458;-58
2022/08/18 10:37:17;;;;;;;38.85;24.98;;;;;;;;;;6226749;28;20576;-60
2022/08/18 10:40:21;;;;;;;38.90;23.83;;;;;;;;;;6236573;28;20061;-59
2022/08/18 10:43:31;;;;;;;38.55;24.10;;;;;;;;;;6239562;28;20073;-57
2022/08/18 10:46:35;;;;;;;39.55;24.63;;;;;;;;;;6239448;28;20062;-53
2022/08/18 10:49:37;;;;;;;41.63;25.15;;;;;;;;;;6224687;28;20173;-57
2022/08/18 10:52:55;;;;;;;42.90;25.13;;;;;;;;;;6219203;28;20049;-62
2022/08/18 10:56:09;;;;;;;40.10;23.70;;;;;;;;;;6215613;28;20140;-57
2022/08/18 10:59:27;;;;;;;35.00;24.30;;;;;;;;;;6227478;28;20520;-57
2022/08/18 11:02:53;;;;;;;37.78;24.63;;;;;;;;;;6237328;28;20042;-52
2022/08/18 11:06:07;;;;;;;39.78;23.60;;;;;;;;;;6226949;28;20567;-60
2022/08/18 11:09:10;;;;;;;39.78;23.92;;;;;;;;;;6220790;28;20192;-60
2022/08/18 11:12:12;;;;;;;43.08;23.77;;;;;;;;;;6224669;28;20076;-55
2022/08/18 11:15:19;;;;;;;40.42;23.63;;;;;;;;;;6219370;28;20132;-60
2022/08/18 11:18:21;;;;;;;37.35;23.80;;;;;;;;;;6222363;28;20053;-59
2022/08/18 11:21:32;;;;;;;37.63;22.83;;;;;;;;;;6223893;28;20494;-60
2022/08/18 11:24:34;;;;;;;33.30;23.50;;;;;;;;;;6219110;28;20058;-61
2022/08/18 11:27:35;;;;;;;39.58;23.27;;;;;;;;;;6232872;28;20465;-54
2022/08/18 11:30:42;;;;;;;36.92;23.48;;;;;;;;;;6236503;28;20046;-60
2022/08/18 11:33:42;;;;;;;36.72;23.05;;;;;;;;;;6235059;28;20166;-59
2022/08/18 11:36:43;;;;;;;36.15;21.10;;;;;;;;;;6220931;28;20566;-56
2022/08/18 11:39:49;;;;;;;36.63;23.10;;;;;;;;;;6221475;28;20071;-60
2022/08/18 11:43:01;;;;;;;39.13;23.00;;;;;;;;;;6226542;28;20081;-60
2022/08/18 11:46:24;;;;;;;36.25;21.67;;;;;;;;;;6231712;28;20621;-56
2022/08/18 11:49:31;;;;;;;37.17;22.67;;;;;;;;;;6223701;28;20349;-58
2022/08/18 11:52:45;;;;;;;36.13;21.38;;;;;;;;;;6227919;28;20114;-55
2022/08/18 11:56:03;;;;;;;34.85;21.50;;;;;;;;;;6224448;28;20042;-55
2022/08/18 11:59:31;;;;;;;35.92;21.83;;;;;;;;;;6228988;28;20049;-55
2022/08/18 12:02:31;;;;;;;36.70;22.60;;;;;;;;;;6219876;28;20112;-61
2022/08/18 12:05:52;;;;;;;35.78;21.55;;;;;;;;;;6215976;28;20060;-57
2022/08/18 12:09:15;;;;;;;36.55;20.92;;;;;;;;;;6224541;28;20077;-59
2022/08/18 12:12:31;;;;;;;33.22;22.02;;;;;;;;;;6225623;28;20128;-59
2022/08/18 12:15:34;;;;;;;37.08;22.27;;;;;;;;;;6226289;28;20053;-60
2022/08/18 12:18:34;;;;;;;38.42;22.35;;;;;;;;;;6221213;28;20057;-60
2022/08/18 12:21:39;;;;;;;;;;;;;;;;;;6226730;28;20703;-60
2022/08/18 12:24:40;;;;;;;32.72;20.45;;;;;;;;;;6227441;28;19931;-59
2022/08/18 12:27:41;;;;;;;36.55;20.65;;;;;;;;;;6223871;28;20058;-60
2022/08/18 12:30:41;;;;;;;37.20;21.20;;;;;;;;;;6222111;28;20053;-53
2022/08/18 12:33:42;;;;;;;;;;;;;;;;;;6218568;28;20052;-61
2022/08/18 12:36:42;;;;;;;38.75;21.58;;;;;;;;;;6212210;28;19928;-56
2022/08/18 12:39:43;;;;;;;34.08;20.90;;;;;;;;;;6219076;28;20044;-54
2022/08/18 12:42:44;;;;;;;38.22;21.17;;;;;;;;;;6218270;28;20066;-58
2022/08/18 12:45:45;;;;;;;33.17;21.05;;;;;;;;;;6214289;28;20092;-54
2022/08/18 12:48:46;;;;;;;38.60;21.10;;;;;;;;;;6217520;28;20049;-60
2022/08/18 12:51:47;;;;;;;37.90;21.13;;;;;;;;;;6221284;28;21777;-54
2022/08/18 12:54:48;;;;;;;31.95;20.88;;;;;;;;;;6222522;28;20796;-56
2022/08/18 12:57:48;;;;;;;;;;;;;;;;;;6227229;28;20040;-61
2022/08/18 13:00:49;;;;;;;32.27;20.20;;;;;;;;;;6229189;28;19947;-57
2022/08/18 13:03:52;;;;;;;38.28;21.00;;;;;;;;;;6224809;28;20412;-60
2022/08/18 13:06:57;;;;;;;35.35;20.65;;;;;;;;;;6226136;28;20045;-60
2022/08/18 13:09:58;;;;;;;32.03;19.92;;;;;;;;;;6220363;28;20049;-60
2022/08/18 13:12:58;;;;;;;;;;;;;;;;;;6223424;28;20045;-53
2022/08/18 13:15:59;;;;;;;33.27;20.80;;;;;;;;;;6216189;28;19929;-54
2022/08/18 13:19:00;;;;;;;;;;;;;;;;;;6219638;28;20072;-59
2022/08/18 13:22:01;;;;;;;33.05;20.65;;;;;;;;;;6221429;28;20372;-55
2022/08/18 13:25:02;;;;;;;;;;;;;;;;;;6217330;28;20057;-58
2022/08/18 13:28:04;;;;;;;29.17;19.25;;;;;;;;;;6216762;28;19929;-57
2022/08/18 13:31:05;;;;;;;33.28;19.27;;;;;;;;;;6218185;28;20045;-61
2022/08/18 13:34:08;;;;;;;;;;;;;;;;;;6220467;28;20061;-56
2022/08/18 13:37:09;;;;;;;39.95;21.15;;;;;;;;;;6221817;28;19931;-59
2022/08/18 13:40:12;;;;;;;;;;;;;;;;;;6227481;28;20054;-58
2022/08/18 13:43:14;;;;;;;40.17;23.02;;;;;;;;;;6226274;28;20019;-60
2022/08/18 13:46:18;;;;;;;36.78;22.77;;;;;;;;;;6224575;28;21607;-60
2022/08/18 13:49:21;;;;;;;37.13;21.75;;;;;;;;;;6224753;28;20076;-60
2022/08/18 13:52:21;;;;;;;39.58;23.30;;;;;;;;;;6229575;28;20058;-60
2022/08/18 13:55:25;;;;;;;;;;;;;;;;;;6203437;28;20055;-60
2022/08/18 13:58:26;;;;;;;33.20;20.40;;;;;;;;;;6216792;28;21364;-60
2022/08/18 14:01:27;;;;;;;33.65;21.42;;;;;;;;;;6218629;28;20053;-60
2022/08/18 14:04:28;;;;;;;;;;;;;;;;;;6219273;28;20045;-56
2022/08/18 14:07:28;;;;;;;34.87;21.03;;;;;;;;;;6212370;28;19929;-61
2022/08/18 14:10:29;;;;;;;;;;;;;;;;;;6221455;28;20064;-61
2022/08/18 14:13:30;;;;;;;33.50;21.42;;;;;;;;;;6219301;28;19925;-59
2022/08/18 14:16:32;;;;;;;;;;;;;;;;;;6215600;28;20120;-56
2022/08/18 14:29:32;;;;;;;41.50;24.10;;;;;;;;;;6226742;28;20045;-60
2022/08/18 14:32:33;;;;;;;;;;;;;;;;;;6228418;28;20076;-50
2022/08/18 14:35:35;;;;;;;32.07;22.57;;;;;;;;;;6230357;28;20376;-53
2022/08/18 14:38:36;;;;;;;41.30;23.90;;;;;;;;;;6227215;28;20053;-61
2022/08/18 14:41:39;;;;;;;38.20;22.58;;;;;;;;;;6228709;28;20081;-56
2022/08/18 14:44:40;;;;;;;38.05;22.20;;;;;;;;;;6230448;28;20140;-60
2022/08/18 14:47:41;;;;;;;38.97;22.58;;;;;;;;;;6225907;28;20069;-60
2022/08/18 14:50:42;;;;;;;;;;;;;;;;;;6226171;28;20099;-58
2022/08/18 14:53:43;;;;;;;;;;;;;;;;;;6227205;28;19925;-58
2022/08/18 14:56:43;;;;;;;33.38;22.25;;;;;;;;;;6226085;28;20459;-59
2022/08/18 14:59:44;;;;;;;;;;;;;;;;;;6228658;28;20041;-58
2022/08/18 15:02:48;;;;;;;37.90;21.57;;;;;;;;;;6231616;28;19928;-59
2022/08/18 15:05:48;;;;;;;34.65;22.13;;;;;;;;;;6231924;28;20049;-58
2022/08/18 15:08:48;;;;;;;;;;;;;;;;;;6229477;28;20094;-60
2022/08/18 15:11:49;;;;;;;34.97;19.80;;;;;;;;;;6228911;28;19924;-54
2022/08/18 15:14:50;;;;;;;33.90;20.00;;;;;;;;;;6231303;28;20060;-56
2022/08/18 15:17:51;;;;;;;;;;;;;;;;;;6228400;28;20058;-58
2022/08/18 15:27:39;;;;;;;32.97;20.55;;;;;;;;;;6228031;28;20788;-56
2022/08/18 15:30:41;;;;;;;34.00;21.08;;;;;;;;;;6226925;28;20053;-56
2022/08/18 15:33:42;;;;;;;34.90;20.27;;;;;;;;;;6227572;28;20140;-59
2022/08/18 15:36:42;;;;;;;;;;;;;;;;;;6228160;28;20049;-59
2022/08/18 15:39:43;;;;;;;32.43;20.10;;;;;;;;;;6231825;28;20397;-59
2022/08/18 15:42:45;;;;;;;;;;;;;;;;;;6230148;28;20072;-58
2022/08/18 15:45:47;;;;;;;32.90;20.08;;;;;;;;;;6230371;28;20265;-56
2022/08/18 15:48:48;;;;;;;30.10;19.52;;;;;;;;;;6228891;28;20080;-58
2022/08/18 15:51:48;;;;;;;;;;;;;;;;;;6222215;28;20057;-58
2022/08/18 15:54:49;;;;;;;38.57;19.63;;;;;;;;;;6220953;28;19960;-57
2022/08/18 15:57:50;;;;;;;;;;;;;;;;;;6220304;28;20047;-59
2022/08/18 16:00:51;;;;;;;30.13;20.43;;;;;;;;;;6218022;28;20395;-61
2022/08/18 16:03:54;;;;;;;36.20;20.38;;;;;;;;;;6221184;28;20433;-59
2022/08/18 16:06:54;;;;;;;33.95;19.95;;;;;;;;;;6217822;28;20173;-54
2022/08/18 16:09:55;;;;;;;;;;;;;;;;;;6221828;28;20393;-51
2022/08/18 16:12:56;;;;;;;29.73;18.27;;;;;;;;;;6221367;28;19929;-57
2022/08/18 16:15:56;;;;;;;;;;;;;;;;;;6221695;28;20058;-59
2022/08/18 16:18:57;;;;;;;32.20;18.63;;;;;;;;;;6219433;28;19936;-57
2022/08/18 16:21:57;;;;;;;;;;;;;;;;;;6217002;28;20049;-59
2022/08/18 16:24:58;;;;;;;32.17;19.23;;;;;;;;;;6218242;28;19936;-60
2022/08/18 16:27:59;;;;;;;;;;;;;;;;;;6218284;28;20598;-58
2022/08/18 16:31:00;;;;;;;30.80;19.47;;;;;;;;;;6220820;28;20387;-58
2022/08/18 16:34:00;;;;;;;33.33;20.20;;;;;;;;;;6217874;28;20747;-60
2022/08/18 16:37:01;;;;;;;;;;;;;;;;;;6220865;28;20061;-58
2022/08/18 16:40:03;;;;;;;33.90;19.03;;;;;;;;;;6220146;28;19929;-58
2022/08/18 16:43:04;;;;;;;37.80;19.73;;;;;;;;;;6221416;28;20057;-57
2022/08/18 16:46:09;;;;;;;32.60;18.73;;;;;;;;;;6217652;28;20053;-56
2022/08/18 16:49:10;;;;;;;33.75;18.95;;;;;;;;;;6201878;28;20042;-59
2022/08/18 16:52:12;;;;;;;;;;;;;;;;;;6201569;28;20041;-58
2022/08/18 16:55:12;;;;;;;;;;;;;;;;;;6204494;28;19957;-59
2022/08/18 17:04:51;;;;;;;32.78;19.77;;;;;;;;;;6202168;28;20386;-59
2022/08/18 17:07:51;;;;;;;;;;;;;;;;;;6200907;28;20068;-58
2022/08/18 17:10:53;;;;;;;37.30;20.00;;;;;;;;;;6202144;28;19925;-56
2022/08/18 17:13:56;;;;;;;33.10;19.60;;;;;;;;;;6200425;28;20497;-59
2022/08/18 17:16:59;;;;;;;30.92;20.02;;;;;;;;;;6200723;28;20045;-57
2022/08/18 17:19:59;;;;;;;32.80;19.33;;;;;;;;;;6205861;28;20141;-59
2022/08/18 17:23:00;;;;;;;;;;;;;;;;;;6204135;28;20143;-59
2022/08/18 17:26:01;;;;;;;33.10;19.40;;;;;;;;;;6199671;28;19929;-58
2022/08/18 17:29:14;;;;;;;;;;;;;;;;;;6200200;28;20647;-57
2022/08/18 17:32:30;;;;;;;37.47;20.48;;;;;;;;;;6203867;28;20383;-54
2022/08/18 17:35:41;;;;;;;34.47;20.15;;;;;;;;;;6197743;28;20045;-57
2022/08/18 17:38:53;;;;;;;37.55;19.92;;;;;;;;;;6200351;28;20050;-52
2022/08/18 17:45:14;;;;;;;39.10;20.13;;;;;;;;;;6198727;28;20678;-55
2022/08/18 17:48:22;;;;;;;40.40;21.48;;;;;;;;;;6208656;28;20054;-59
2022/08/18 17:51:36;;;;;;;35.88;21.73;;;;;;;;;;6218435;28;20038;-55
2022/08/18 17:54:49;;;;;;;40.53;20.23;;;;;;;;;;6211055;28;20037;-54
2022/08/18 17:57:58;;;;;;;39.15;21.25;;;;;;;;;;6212539;28;20049;-55
2022/08/18 18:01:01;;;;;;;33.72;20.05;;;;;;;;;;6216869;28;20091;-60
2022/08/18 18:04:03;;;;;;;34.90;20.92;;;;;;;;;;6224039;28;20064;-61
2022/08/18 18:07:04;;;;;;;35.10;20.77;;;;;;;;;;6227987;28;20033;-62
2022/08/18 18:10:10;;;;;;;;;;;;;;;;;;6224714;28;20871;-52
2022/08/18 18:13:23;;;;;;;38.25;21.88;;;;;;;;;;6221703;28;19929;-54
2022/08/18 18:16:33;;;;;;;35.67;21.45;;;;;;;;;;6227387;28;20095;-54
2022/08/18 18:19:35;;;;;;;36.90;21.40;;;;;;;;;;6225425;28;20443;-54
2022/08/18 18:22:36;;;;;;;42.75;21.60;;;;;;;;;;6223283;28;20096;-61
2022/08/18 18:25:37;;;;;;;42.60;21.55;;;;;;;;;;6227285;28;20056;-59
2022/08/18 18:28:37;;;;;;;41.65;21.77;;;;;;;;;;6226193;28;20053;-54
2022/08/18 18:31:40;;;;;;;40.08;21.63;;;;;;;;;;6224435;28;20060;-51
2022/08/18 18:34:59;;;;;;;36.42;21.85;;;;;;;;;;6220919;28;20050;-53
2022/08/18 18:38:21;;;;;;;43.97;22.15;;;;;;;;;;6215012;28;20046;-57
2022/08/18 18:41:26;;;;;;;38.78;22.05;;;;;;;;;;6227422;28;20046;-61
2022/08/18 18:44:29;;;;;;;38.15;20.73;;;;;;;;;;6223546;28;20051;-59
2022/08/18 18:47:48;;;;;;;38.17;21.80;;;;;;;;;;6227039;28;20056;-57
2022/08/18 18:51:15;;;;;;;37.75;21.52;;;;;;;;;;6229447;28;20417;-57
2022/08/18 18:54:34;;;;;;;37.58;20.90;;;;;;;;;;6227449;28;20088;-58
2022/08/18 18:58:05;;;;;;;38.40;20.60;;;;;;;;;;6228287;28;20049;-52
2022/08/18 19:01:16;;;;;;;37.70;21.17;;;;;;;;;;6226398;28;20500;-61
2022/08/18 19:04:26;;;;;;;40.10;21.77;;;;;;;;;;6222383;28;20075;-57
2022/08/18 19:07:39;;;;;;;38.63;20.38;;;;;;;;;;6224163;28;20763;-60